createdAt,value
2019-03-21T00:00:34.017Z,26.30
2019-03-21T00:03:01.994Z,22.20
2019-03-21T00:05:32.452Z,20.55
2019-03-21T00:08:00.440Z,25.77
2019-03-21T00:11:25.074Z,21.77
2019-03-21T00:13:54.996Z,26.30
2019-03-21T00:16:22.959Z,21.07
2019-03-21T00:18:50.927Z,22.40
2019-03-21T00:21:18.981Z,22.22
2019-03-21T00:23:46.916Z,28.60
2019-03-21T00:26:14.868Z,26.87
2019-03-21T00:28:42.840Z,23.90
2019-03-21T00:31:10.829Z,23.50
2019-03-21T00:33:38.801Z,24.47
2019-03-21T00:36:06.765Z,27.67
2019-03-21T00:38:34.741Z,24.43
2019-03-21T00:41:02.717Z,28.90
2019-03-21T00:43:30.807Z,31.90
2019-03-21T00:45:58.760Z,29.05
2019-03-21T00:48:26.732Z,28.52
2019-03-21T00:50:54.718Z,26.75
2019-03-21T00:53:22.683Z,27.90
2019-03-21T00:55:50.879Z,22.67
2019-03-21T00:58:18.845Z,24.92
2019-03-21T01:00:49.211Z,30.30
2019-03-21T01:03:17.181Z,27.25
2019-03-21T01:05:45.175Z,27.75
2019-03-21T01:08:13.236Z,23.95
2019-03-21T01:10:41.449Z,31.37
2019-03-21T01:13:09.329Z,27.42
2019-03-21T01:15:37.293Z,27.65
2019-03-21T01:18:05.292Z,31.15
2019-03-21T01:20:33.253Z,24.10
2019-03-21T01:23:01.205Z,21.02
2019-03-21T01:25:32.640Z,21.02
2019-03-21T01:28:00.608Z,25.80
2019-03-21T01:30:28.638Z,25.37
2019-03-21T01:32:56.670Z,31.07
2019-03-21T01:35:24.744Z,25.52
2019-03-21T01:37:52.729Z,31.25
2019-03-21T01:40:22.171Z,31.57
2019-03-21T01:42:50.313Z,33.55
2019-03-21T01:45:19.961Z,27.37
2019-03-21T01:47:48.001Z,23.60
2019-03-21T01:50:16.744Z,27.80
2019-03-21T01:52:44.709Z,28.02
2019-03-21T01:55:13.161Z,28.35
2019-03-21T01:57:41.176Z,32.75
2019-03-21T02:00:12.925Z,24.52
2019-03-21T02:02:41.061Z,31.50
2019-03-21T02:05:09.472Z,30.25
2019-03-21T02:07:37.472Z,29.52
2019-03-21T02:10:07.430Z,26.95
2019-03-21T02:12:35.533Z,32.23
2019-03-21T02:15:03.633Z,27.65
2019-03-21T02:17:31.593Z,32.75
2019-03-21T02:19:59.691Z,30.12
2019-03-21T02:22:27.643Z,32.98
2019-03-21T02:24:55.699Z,29.20
2019-03-21T02:27:23.695Z,30.08
2019-03-21T02:29:51.656Z,28.17
2019-03-21T02:32:19.710Z,30.20
2019-03-21T02:34:47.884Z,34.67
2019-03-21T02:37:15.861Z,24.32
2019-03-21T02:39:58.297Z,29.57
2019-03-21T02:42:13.638Z,28.55
2019-03-21T02:44:41.735Z,27.93
2019-03-21T02:47:09.678Z,28.75
2019-03-21T02:49:37.669Z,40.67
2019-03-21T02:52:05.637Z,29.27
2019-03-21T02:54:33.579Z,32.35
2019-03-21T02:57:01.673Z,30.02
2019-03-21T02:59:29.566Z,35.05
2019-03-21T03:01:57.558Z,33.33
2019-03-21T03:04:25.563Z,31.25
2019-03-21T03:06:53.497Z,30.55
2019-03-21T03:09:21.366Z,31.10
2019-03-21T03:11:49.484Z,31.25
2019-03-21T03:14:17.601Z,35.28
2019-03-21T03:16:45.539Z,28.67
2019-03-21T03:19:13.497Z,30.75
2019-03-21T03:21:41.493Z,37.28
2019-03-21T03:24:09.471Z,28.15
2019-03-21T03:26:37.413Z,33.20
2019-03-21T03:29:05.407Z,30.55
2019-03-21T03:31:33.373Z,33.42
2019-03-21T03:34:01.352Z,30.80
2019-03-21T03:36:29.341Z,30.97
2019-03-21T03:38:57.317Z,28.95
2019-03-21T03:41:25.294Z,34.67
2019-03-21T03:43:53.298Z,28.67
2019-03-21T03:46:21.269Z,28.38
2019-03-21T03:48:49.247Z,26.85
2019-03-21T03:51:17.275Z,27.45
2019-03-21T03:53:45.337Z,28.32
2019-03-21T03:56:13.432Z,27.15
2019-03-21T03:58:42.676Z,28.52
2019-03-21T04:01:10.676Z,31.52
2019-03-21T04:03:38.736Z,34.30
2019-03-21T04:06:06.718Z,37.78
2019-03-21T04:08:34.889Z,32.88
2019-03-21T04:11:03.064Z,27.40
2019-03-21T04:13:31.161Z,36.13
2019-03-21T04:15:59.313Z,27.30
2019-03-21T04:18:27.296Z,27.95
2019-03-21T04:20:55.940Z,31.50
2019-03-21T04:23:23.914Z,25.20
2019-03-21T04:25:54.803Z,28.12
2019-03-21T04:28:23.389Z,31.52
2019-03-21T04:30:51.373Z,32.70
2019-03-21T04:33:22.509Z,31.48
2019-03-21T04:35:49.260Z,33.15
2019-03-21T04:38:17.228Z,33.95
2019-03-21T04:40:45.185Z,32.65
2019-03-21T04:43:13.156Z,34.40
2019-03-21T04:45:41.168Z,31.57
2019-03-21T04:48:09.120Z,31.12
2019-03-21T04:50:37.133Z,34.27
2019-03-21T04:53:05.100Z,34.00
2019-03-21T04:55:33.074Z,30.48
2019-03-21T04:58:01.055Z,31.82
2019-03-21T05:00:30.443Z,34.20
2019-03-21T05:02:59.275Z,36.93
2019-03-21T05:05:27.290Z,38.80
2019-03-21T05:07:55.272Z,35.08
2019-03-21T05:10:23.336Z,31.93
2019-03-21T05:12:51.406Z,29.25
2019-03-21T05:15:25.174Z,32.65
2019-03-21T05:17:54.673Z,31.97
2019-03-21T05:20:24.304Z,30.20
2019-03-21T05:22:52.273Z,31.40
2019-03-21T05:25:20.229Z,29.72
2019-03-21T05:27:48.314Z,33.33
2019-03-21T05:30:28.792Z,28.83
2019-03-21T05:32:56.765Z,31.80
2019-03-21T05:35:24.732Z,31.75
2019-03-21T05:37:52.705Z,33.33
2019-03-21T05:40:20.723Z,35.48
2019-03-21T05:42:55.916Z,36.23
2019-03-21T05:45:23.896Z,34.67
2019-03-21T05:47:51.856Z,38.95
2019-03-21T05:50:19.940Z,37.42
2019-03-21T05:52:47.922Z,36.60
2019-03-21T05:55:15.978Z,38.58
2019-03-21T05:57:44.081Z,35.95
2019-03-21T06:00:16.033Z,41.73
2019-03-21T06:02:44.107Z,35.17
2019-03-21T06:05:12.094Z,36.95
2019-03-21T06:07:52.656Z,38.33
2019-03-21T06:10:20.641Z,35.45
2019-03-21T06:12:48.632Z,34.63
2019-03-21T06:15:23.003Z,41.35
2019-03-21T06:18:07.151Z,41.50
2019-03-21T06:20:51.729Z,38.70
2019-03-21T06:23:57.260Z,40.65
2019-03-21T06:26:39.994Z,45.12
2019-03-21T06:29:07.958Z,41.75
2019-03-21T06:31:35.922Z,49.38
2019-03-21T06:34:04.101Z,45.17
2019-03-21T06:36:32.000Z,41.45
2019-03-21T06:38:59.963Z,41.68
2019-03-21T06:41:27.949Z,46.85
2019-03-21T06:43:56.016Z,56.15
2019-03-21T06:46:24.104Z,45.83
2019-03-21T06:48:52.133Z,44.95
2019-03-21T06:51:20.096Z,50.23
2019-03-21T06:53:48.150Z,55.88
2019-03-21T06:56:16.148Z,52.03
2019-03-21T06:58:44.239Z,55.67
2019-03-21T07:01:12.200Z,51.55
2019-03-21T07:03:40.292Z,47.83
2019-03-21T07:06:08.278Z,54.15
2019-03-21T07:08:36.275Z,56.18
2019-03-21T07:11:04.533Z,51.18
2019-03-21T07:13:32.606Z,53.63
2019-03-21T07:16:00.665Z,48.35
2019-03-21T07:18:28.690Z,53.28
2019-03-21T07:20:56.757Z,51.25
2019-03-21T07:23:24.828Z,47.38
2019-03-21T07:25:52.914Z,50.78
2019-03-21T07:28:20.966Z,43.58
2019-03-21T07:30:48.951Z,46.85
2019-03-21T07:33:16.913Z,51.42
2019-03-21T07:35:44.993Z,46.15
2019-03-21T07:38:12.985Z,42.48
2019-03-21T07:40:41.030Z,45.73
2019-03-21T07:43:09.018Z,44.77
2019-03-21T07:45:36.966Z,52.53
2019-03-21T07:48:05.377Z,44.27
2019-03-21T07:50:33.470Z,43.30
2019-03-21T07:53:01.423Z,43.70
2019-03-21T07:55:29.380Z,34.53
2019-03-21T07:57:59.484Z,34.58
2019-03-21T08:00:27.566Z,35.00
2019-03-21T08:02:55.555Z,41.90
2019-03-21T08:05:23.735Z,38.23
2019-03-21T08:07:51.699Z,38.80
2019-03-21T08:10:19.701Z,46.13
2019-03-21T08:12:47.716Z,45.40
2019-03-21T08:15:15.981Z,45.25
2019-03-21T08:17:44.064Z,44.00
2019-03-21T08:20:12.729Z,45.28
2019-03-21T08:22:40.801Z,41.58
2019-03-21T08:25:09.292Z,47.30
2019-03-21T08:27:37.476Z,49.63
2019-03-21T08:30:06.231Z,41.35
2019-03-21T08:32:34.343Z,41.70
2019-03-21T08:35:02.311Z,42.53
2019-03-21T08:37:30.390Z,38.20
2019-03-21T08:39:58.395Z,36.58
2019-03-21T08:42:26.355Z,37.15
2019-03-21T08:44:54.327Z,35.80
2019-03-21T08:47:22.302Z,37.45
2019-03-21T08:49:50.286Z,33.25
2019-03-21T08:52:18.444Z,35.98
2019-03-21T08:54:46.398Z,30.45
2019-03-21T08:57:14.370Z,34.60
2019-03-21T08:59:42.352Z,37.70
2019-03-21T09:02:10.310Z,39.25
2019-03-21T09:04:38.291Z,30.45
2019-03-21T09:07:06.352Z,34.38
2019-03-21T09:09:34.340Z,32.73
2019-03-21T09:12:02.425Z,32.10
2019-03-21T09:14:30.384Z,33.18
2019-03-21T09:16:58.346Z,35.25
2019-03-21T09:19:26.334Z,38.90
2019-03-21T09:21:54.895Z,34.45
2019-03-21T09:24:22.866Z,34.40
2019-03-21T09:26:51.036Z,31.97
2019-03-21T09:29:19.061Z,33.02
2019-03-21T09:31:47.354Z,32.70
2019-03-21T09:34:16.039Z,36.60
2019-03-21T09:36:43.995Z,32.85
2019-03-21T09:39:11.864Z,37.13
2019-03-21T09:41:39.859Z,34.05
2019-03-21T09:44:07.813Z,31.37
2019-03-21T09:46:35.908Z,32.75
2019-03-21T09:49:03.884Z,28.65
2019-03-21T09:51:31.836Z,38.67
2019-03-21T09:54:09.340Z,33.53
2019-03-21T09:56:29.586Z,35.05
2019-03-21T09:58:57.552Z,31.70
2019-03-21T10:01:25.529Z,33.95
2019-03-21T10:03:53.512Z,33.18
2019-03-21T10:06:21.472Z,37.75
2019-03-21T10:08:49.512Z,36.00
2019-03-21T10:11:17.704Z,39.53
2019-03-21T10:13:45.781Z,34.85
2019-03-21T10:16:13.821Z,34.45
2019-03-21T10:18:41.891Z,38.98
2019-03-21T10:21:09.877Z,32.33
2019-03-21T10:23:37.868Z,31.70
2019-03-21T10:26:05.837Z,33.70
2019-03-21T10:28:33.894Z,29.25
2019-03-21T10:31:02.026Z,31.90
2019-03-21T10:33:29.996Z,39.78
2019-03-21T10:35:57.973Z,35.43
2019-03-21T10:38:25.978Z,32.67
2019-03-21T10:40:54.045Z,40.52
2019-03-21T10:43:22.038Z,30.75
2019-03-21T10:45:50.052Z,31.65
2019-03-21T10:48:18.166Z,36.08
2019-03-21T10:50:46.250Z,30.55
2019-03-21T10:53:14.220Z,37.80
2019-03-21T10:55:42.204Z,36.25
2019-03-21T10:58:10.186Z,37.70
2019-03-21T11:00:38.418Z,36.88
2019-03-21T11:03:06.712Z,35.55
2019-03-21T11:05:35.190Z,33.55
2019-03-21T11:08:03.613Z,36.13
2019-03-21T11:10:31.592Z,36.80
2019-03-21T11:12:59.658Z,43.50
2019-03-21T11:15:27.750Z,44.48
2019-03-21T11:17:55.822Z,35.05
2019-03-21T11:20:29.279Z,39.15
2019-03-21T11:22:57.233Z,34.33
2019-03-21T11:25:25.401Z,38.53
2019-03-21T11:27:53.726Z,34.05
2019-03-21T11:30:28.998Z,33.75
2019-03-21T11:32:56.971Z,34.85
2019-03-21T11:35:24.928Z,38.53
2019-03-21T11:37:53.018Z,34.92
2019-03-21T11:40:21.559Z,34.58
2019-03-21T11:42:49.558Z,36.90
2019-03-21T11:45:17.632Z,34.00
2019-03-21T11:47:45.665Z,35.55
2019-03-21T11:50:13.756Z,35.65
2019-03-21T11:52:41.707Z,32.53
2019-03-21T11:55:09.981Z,31.95
2019-03-21T11:57:38.110Z,33.50
2019-03-21T12:00:06.304Z,38.13
2019-03-21T12:02:34.268Z,34.58
2019-03-21T12:05:02.384Z,37.08
2019-03-21T12:07:30.344Z,32.80
2019-03-21T12:09:58.308Z,30.15
2019-03-21T12:12:26.408Z,30.92
2019-03-21T12:14:54.466Z,39.13
2019-03-21T12:17:22.748Z,35.75
2019-03-21T12:19:50.750Z,39.85
2019-03-21T12:22:29.416Z,36.65
2019-03-21T12:24:48.716Z,35.83
2019-03-21T12:27:16.694Z,36.42
2019-03-21T12:29:44.674Z,31.80
2019-03-21T12:32:12.692Z,34.20
2019-03-21T12:34:40.870Z,31.77
2019-03-21T12:37:08.928Z,34.55
2019-03-21T12:39:36.934Z,34.95
2019-03-21T12:42:04.801Z,32.20
2019-03-21T12:44:32.884Z,33.28
2019-03-21T12:47:00.925Z,32.73
2019-03-21T12:49:28.887Z,33.38
2019-03-21T12:51:56.937Z,31.35
2019-03-21T12:54:24.959Z,32.38
2019-03-21T12:56:53.179Z,34.20
2019-03-21T12:59:21.226Z,33.20
2019-03-21T13:01:49.275Z,29.42
2019-03-21T13:04:17.250Z,29.42
2019-03-21T13:06:45.240Z,28.15
2019-03-21T13:09:13.212Z,32.93
2019-03-21T13:11:41.185Z,31.37
2019-03-21T13:14:09.237Z,27.10
2019-03-21T13:16:37.228Z,26.55
2019-03-21T13:19:05.055Z,28.00
2019-03-21T13:21:33.029Z,29.05
2019-03-21T13:24:00.994Z,29.80
2019-03-21T13:26:29.091Z,31.12
2019-03-21T13:28:57.094Z,26.75
2019-03-21T13:31:25.160Z,25.72
2019-03-21T13:33:53.171Z,25.25
2019-03-21T13:36:21.178Z,26.90
2019-03-21T13:38:49.192Z,25.77
2019-03-21T13:41:17.224Z,29.00
2019-03-21T13:43:45.209Z,32.70
2019-03-21T13:46:13.316Z,30.92
2019-03-21T13:48:41.317Z,28.17
2019-03-21T13:51:09.283Z,29.12
2019-03-21T13:53:37.244Z,29.35
2019-03-21T13:56:05.411Z,28.27
2019-03-21T13:58:33.392Z,24.72
2019-03-21T14:01:01.384Z,30.50
2019-03-21T14:03:29.536Z,31.10
2019-03-21T14:05:57.567Z,30.40
2019-03-21T14:08:25.598Z,25.77
2019-03-21T14:10:53.575Z,26.60
2019-03-21T14:13:21.574Z,25.32
2019-03-21T14:15:49.573Z,26.75
2019-03-21T14:18:17.668Z,28.70
2019-03-21T14:20:45.743Z,25.75
2019-03-21T14:23:17.367Z,28.52
2019-03-21T14:25:43.502Z,23.32
2019-03-21T14:28:11.469Z,22.07
2019-03-21T14:30:39.475Z,26.60
2019-03-21T14:33:08.402Z,24.55
2019-03-21T14:35:36.521Z,23.75
2019-03-21T14:38:04.701Z,25.80
2019-03-21T14:40:32.666Z,23.98
2019-03-21T14:43:00.634Z,28.45
2019-03-21T14:45:28.631Z,22.30
2019-03-21T14:47:56.602Z,23.62
2019-03-21T14:50:24.566Z,25.20
2019-03-21T14:52:52.549Z,24.30
2019-03-21T14:55:20.616Z,30.82
2019-03-21T14:57:48.655Z,20.50
2019-03-21T15:00:17.279Z,21.68
2019-03-21T15:02:45.248Z,21.25
2019-03-21T15:05:14.230Z,22.85
2019-03-21T15:07:42.234Z,21.07
2019-03-21T15:10:10.726Z,20.62
2019-03-21T15:12:38.689Z,23.80
2019-03-21T15:15:08.062Z,21.70
2019-03-21T15:17:36.052Z,21.48
2019-03-21T15:20:05.774Z,22.10
2019-03-21T15:22:33.768Z,21.27
2019-03-21T15:25:01.742Z,20.68
2019-03-21T15:27:29.710Z,25.88
2019-03-21T15:29:57.729Z,23.67
2019-03-21T15:32:25.881Z,23.32
2019-03-21T15:34:53.882Z,22.15
2019-03-21T15:37:21.900Z,23.98
2019-03-21T15:39:49.866Z,22.27
2019-03-21T15:42:17.932Z,20.27
2019-03-21T15:44:45.908Z,22.80
2019-03-21T15:47:13.978Z,24.35
2019-03-21T15:49:41.965Z,22.55
2019-03-21T15:52:09.943Z,21.77
2019-03-21T15:54:37.900Z,21.15
2019-03-21T15:57:05.944Z,22.95
2019-03-21T15:59:33.912Z,23.27
2019-03-21T16:02:01.986Z,21.25
2019-03-21T16:04:30.056Z,24.00
2019-03-21T16:06:58.027Z,24.27
2019-03-21T16:09:25.993Z,21.42
2019-03-21T16:11:54.067Z,24.65
2019-03-21T16:14:22.072Z,22.70
2019-03-21T16:16:50.141Z,22.95
2019-03-21T16:19:18.233Z,24.35
2019-03-21T16:21:46.313Z,22.20
2019-03-21T16:24:14.296Z,23.98
2019-03-21T16:26:42.277Z,24.10
2019-03-21T16:29:10.514Z,23.40
2019-03-21T16:31:38.588Z,26.17
2019-03-21T16:34:06.558Z,23.22
2019-03-21T16:36:34.534Z,23.55
2019-03-21T16:39:03.266Z,24.95
2019-03-21T16:41:31.210Z,26.93
2019-03-21T16:43:59.200Z,25.77
2019-03-21T16:46:27.196Z,26.85
2019-03-21T16:48:55.198Z,25.85
2019-03-21T16:51:23.193Z,25.52
2019-03-21T16:53:51.145Z,27.25
2019-03-21T16:56:19.227Z,31.02
2019-03-21T16:58:47.305Z,27.02
2019-03-21T17:01:15.297Z,27.77
2019-03-21T17:03:43.353Z,24.72
2019-03-21T17:06:11.325Z,24.43
2019-03-21T17:08:39.358Z,21.90
2019-03-21T17:11:07.406Z,27.40
2019-03-21T17:13:35.364Z,23.75
2019-03-21T17:16:05.604Z,25.35
2019-03-21T17:18:33.361Z,28.15
2019-03-21T17:21:01.379Z,29.23
2019-03-21T17:23:29.475Z,24.92
2019-03-21T17:25:57.427Z,26.85
2019-03-21T17:28:25.348Z,24.52
2019-03-21T17:30:53.279Z,26.48
2019-03-21T17:33:21.269Z,24.77
2019-03-21T17:35:49.306Z,22.65
2019-03-21T17:38:17.281Z,26.77
2019-03-21T17:40:45.347Z,31.85
2019-03-21T17:43:13.518Z,26.90
2019-03-21T17:45:41.509Z,29.95
2019-03-21T17:48:09.496Z,33.35
2019-03-21T17:50:37.492Z,29.80
2019-03-21T17:53:05.539Z,28.35
2019-03-21T17:55:33.514Z,28.05
2019-03-21T17:58:01.484Z,34.45
2019-03-21T18:00:30.208Z,31.07
2019-03-21T18:02:58.190Z,31.33
2019-03-21T18:05:26.156Z,27.42
2019-03-21T18:07:54.146Z,27.75
2019-03-21T18:10:27.320Z,26.77
2019-03-21T18:12:55.564Z,26.97
2019-03-21T18:15:23.557Z,27.52
2019-03-21T18:17:51.535Z,84.80
2019-03-21T18:20:19.691Z,34.10
2019-03-21T18:22:47.643Z,33.40
2019-03-21T18:25:15.688Z,29.40
2019-03-21T18:27:45.264Z,24.50
2019-03-21T18:30:13.737Z,28.85
2019-03-21T18:32:41.707Z,71.50
2019-03-21T18:35:10.516Z,33.05
2019-03-21T18:37:38.500Z,45.73
2019-03-21T18:40:07.349Z,37.90
2019-03-21T18:42:35.312Z,39.30
2019-03-21T18:45:03.812Z,37.35
2019-03-21T18:47:31.896Z,36.65
2019-03-21T18:50:00.012Z,36.35
2019-03-21T18:52:28.104Z,38.02
2019-03-21T18:55:05.691Z,41.45
2019-03-21T18:57:26.085Z,43.15
2019-03-21T18:59:54.362Z,46.53
2019-03-21T19:02:22.453Z,46.42
2019-03-21T19:04:50.528Z,49.27
2019-03-21T19:07:18.494Z,56.10
2019-03-21T19:09:46.530Z,52.98
2019-03-21T19:12:14.689Z,61.35
2019-03-21T19:14:42.565Z,60.95
2019-03-21T19:17:10.533Z,60.80
2019-03-21T19:19:38.522Z,57.45
2019-03-21T19:22:06.731Z,58.45
2019-03-21T19:24:34.745Z,61.10
2019-03-21T19:27:02.716Z,57.53
2019-03-21T19:29:30.686Z,54.30
2019-03-21T19:31:58.776Z,52.30
2019-03-21T19:34:26.857Z,54.63
2019-03-21T19:36:55.077Z,56.18
2019-03-21T19:39:23.068Z,55.83
2019-03-21T19:41:51.097Z,45.48
2019-03-21T19:44:19.267Z,51.02
2019-03-21T19:46:47.275Z,43.25
2019-03-21T19:49:15.231Z,44.48
2019-03-21T19:51:43.214Z,43.87
2019-03-21T19:54:11.158Z,44.50
2019-03-21T19:56:38.970Z,47.53
2019-03-21T19:59:06.845Z,51.10
2019-03-21T20:01:34.864Z,47.30
2019-03-21T20:04:02.857Z,46.53
2019-03-21T20:06:30.827Z,45.23
2019-03-21T20:08:58.802Z,47.90
2019-03-21T20:11:26.788Z,47.08
2019-03-21T20:13:54.873Z,42.80
2019-03-21T20:16:22.886Z,38.40
2019-03-21T20:18:50.979Z,40.50
2019-03-21T20:21:19.000Z,40.88
2019-03-21T20:23:46.998Z,38.53
2019-03-21T20:26:14.988Z,36.08
2019-03-21T20:28:42.992Z,42.93
2019-03-21T20:31:10.981Z,38.58
2019-03-21T20:33:38.940Z,39.23
2019-03-21T20:36:07.052Z,41.58
2019-03-21T20:38:35.136Z,38.50
2019-03-21T20:41:03.126Z,41.90
2019-03-21T20:43:31.112Z,41.45
2019-03-21T20:45:58.981Z,40.23
2019-03-21T20:48:29.638Z,43.02
2019-03-21T20:50:57.956Z,43.23
2019-03-21T20:53:25.960Z,38.85
2019-03-21T20:55:54.096Z,41.55
2019-03-21T20:58:22.229Z,46.30
2019-03-21T21:00:50.664Z,51.00
2019-03-21T21:03:18.684Z,45.60
2019-03-21T21:05:46.676Z,49.48
2019-03-21T21:08:14.692Z,45.70
2019-03-21T21:10:42.754Z,49.63
2019-03-21T21:13:10.725Z,50.75
2019-03-21T21:15:38.852Z,52.62
2019-03-21T21:18:07.885Z,54.60
2019-03-21T21:20:35.865Z,54.67
2019-03-21T21:23:04.456Z,54.65
2019-03-21T21:25:32.621Z,54.60
2019-03-21T21:28:01.132Z,51.83
2019-03-21T21:30:29.112Z,56.98
2019-03-21T21:32:57.189Z,53.02
2019-03-21T21:35:25.767Z,61.10
2019-03-21T21:37:53.737Z,61.63
2019-03-21T21:40:21.852Z,58.23
2019-03-21T21:42:49.955Z,58.25
2019-03-21T21:45:18.248Z,58.75
2019-03-21T21:47:46.293Z,63.42
2019-03-21T21:50:14.382Z,63.65
2019-03-21T21:52:42.572Z,60.00
2019-03-21T21:55:10.829Z,64.27
2019-03-21T21:57:38.783Z,68.65
2019-03-21T22:00:08.484Z,59.40
2019-03-21T22:02:36.443Z,68.28
2019-03-21T22:05:05.225Z,69.47
2019-03-21T22:07:33.212Z,64.97
2019-03-21T22:10:01.168Z,71.62
2019-03-21T22:12:29.176Z,70.32
2019-03-21T22:14:57.141Z,68.78
2019-03-21T22:17:25.160Z,70.35
2019-03-21T22:19:53.252Z,70.17
2019-03-21T22:22:21.211Z,77.80
2019-03-21T22:24:49.337Z,71.80
2019-03-21T22:27:17.400Z,73.70
2019-03-21T22:29:45.476Z,76.85
2019-03-21T22:32:13.530Z,71.07
2019-03-21T22:34:41.535Z,73.25
2019-03-21T22:37:09.548Z,73.80
2019-03-21T22:39:37.516Z,75.00
2019-03-21T22:42:05.335Z,77.85
2019-03-21T22:44:33.238Z,68.33
2019-03-21T22:47:01.202Z,74.15
2019-03-21T22:49:29.214Z,76.40
2019-03-21T22:51:57.184Z,70.65
2019-03-21T22:54:25.553Z,77.78
2019-03-21T22:56:53.538Z,70.45
2019-03-21T22:59:21.496Z,77.62
2019-03-21T23:01:49.673Z,76.97
2019-03-21T23:04:17.808Z,74.70
2019-03-21T23:06:45.833Z,79.82
2019-03-21T23:09:13.908Z,76.90
2019-03-21T23:11:41.872Z,75.60
2019-03-21T23:14:09.839Z,77.65
2019-03-21T23:16:38.013Z,77.87
2019-03-21T23:19:06.101Z,76.37
2019-03-21T23:21:34.066Z,78.45
2019-03-21T23:24:02.133Z,74.32
2019-03-21T23:26:30.220Z,76.97
2019-03-21T23:28:58.216Z,68.90
2019-03-21T23:31:26.163Z,69.25
2019-03-21T23:33:54.173Z,67.20
2019-03-21T23:36:22.149Z,76.02
2019-03-21T23:38:50.134Z,63.65
2019-03-21T23:41:18.366Z,65.83
2019-03-21T23:43:46.352Z,67.82
2019-03-21T23:46:14.336Z,70.32
2019-03-21T23:48:42.430Z,68.50
2019-03-21T23:51:10.401Z,85.80
2019-03-21T23:53:38.360Z,67.45
2019-03-21T23:56:06.316Z,70.37
2019-03-21T23:58:34.287Z,78.87
